Time;durP1;ratioP1;P1;durP2;ratioP2;P2;SDS_P1;SDS_P2;PMS_P1;PMS_P2;Temp;Humidity;BMP_temperature;BMP_pressure;BME280_temperature;BME280_humidity;BME280_pressure;Samples;Min_cycle;Max_cycle;Signal;HPM_P1;HPM_P2
2022/09/10 00:00:59;;;;;;;2.53;1.10;;;15.10;99.90;;;;;;4953035;28;20445;-89
2022/09/10 00:03:35;;;;;;;1.20;1.10;;;15.10;99.90;;;;;;4951346;28;20194;-89
2022/09/10 00:06:03;;;;;;;2.50;1.10;;;15.10;99.90;;;;;;4953460;28;20445;-89
2022/09/10 00:08:33;;;;;;;2.37;1.20;;;15.10;99.90;;;;;;4942216;28;20190;-90
2022/09/10 00:11:05;;;;;;;3.10;1.27;;;15.00;99.90;;;;;;4935692;28;20449;-90
2022/09/10 00:13:31;;;;;;;3.47;1.30;;;15.00;99.90;;;;;;4953219;28;20866;-90
2022/09/10 00:15:58;;;;;;;2.27;1.27;;;15.00;99.90;;;;;;4952310;28;21111;-89
2022/09/10 00:18:26;;;;;;;3.50;1.50;;;14.90;99.90;;;;;;4939574;28;20889;-90
2022/09/10 00:20:54;;;;;;;3.00;1.10;;;14.90;99.90;;;;;;4934144;28;20520;-90
2022/09/10 00:23:27;;;;;;;3.40;1.50;;;15.00;99.90;;;;;;4934819;28;20569;-90
2022/09/10 00:25:55;;;;;;;1.43;1.10;;;15.00;99.90;;;;;;4942703;28;20460;-90
2022/09/10 00:28:23;;;;;;;1.87;1.13;;;15.10;99.90;;;;;;4958273;28;21038;-90
2022/09/10 00:30:51;;;;;;;1.47;0.93;;;15.10;99.90;;;;;;4959850;28;20440;-90
2022/09/10 00:33:18;;;;;;;1.20;0.97;;;15.10;99.90;;;;;;4945409;28;20446;-90
2022/09/10 00:35:44;;;;;;;1.23;1.00;;;15.00;99.90;;;;;;4942496;28;20932;-89
2022/09/10 00:38:13;;;;;;;0.90;0.90;;;15.00;99.90;;;;;;4941534;28;20474;-90
2022/09/10 00:40:40;;;;;;;1.93;1.30;;;15.10;99.90;;;;;;4938818;28;20807;-90
2022/09/10 00:43:21;;;;;;;1.23;0.90;;;15.10;99.90;;;;;;4932761;28;20438;-90
2022/09/10 00:45:52;;;;;;;2.70;1.10;;;15.10;99.90;;;;;;4941933;28;21091;-89
2022/09/10 00:48:26;;;;;;;2.40;1.10;;;15.10;99.90;;;;;;4943944;28;20503;-90
2022/09/10 00:50:53;;;;;;;2.20;1.10;;;15.00;99.90;;;;;;4954264;28;20507;-90
2022/09/10 00:53:23;;;;;;;1.60;1.20;;;15.00;99.90;;;;;;4941970;28;20433;-89
2022/09/10 00:55:53;;;;;;;2.70;1.10;;;15.00;99.90;;;;;;4954602;28;20461;-90
2022/09/10 00:58:21;;;;;;;1.87;1.00;;;15.00;99.90;;;;;;4947082;28;20481;-90
2022/09/10 01:00:51;;;;;;;1.53;1.33;;;15.10;99.90;;;;;;4937556;28;20853;-90
2022/09/10 01:03:18;;;;;;;2.63;1.10;;;15.00;99.90;;;;;;4936527;28;20454;-90
2022/09/10 01:05:46;;;;;;;1.33;1.00;;;15.00;99.90;;;;;;4944080;28;20455;-90
2022/09/10 01:08:13;;;;;;;3.63;1.30;;;15.00;99.90;;;;;;4937227;28;20871;-90
2022/09/10 01:11:07;;;;;;;1.73;1.20;;;15.00;99.90;;;;;;4954311;28;20840;-89
2022/09/10 01:14:04;;;;;;;2.00;1.30;;;15.10;99.90;;;;;;4940024;28;20441;-90
2022/09/10 01:16:52;;;;;;;1.60;1.50;;;15.10;99.90;;;;;;4940792;28;20540;-90
2022/09/10 01:19:42;;;;;;;3.30;1.60;;;15.10;99.90;;;;;;4938791;28;20839;-90
2022/09/10 01:22:38;;;;;;;1.63;1.53;;;15.10;99.90;;;;;;4958284;28;20445;-90
2022/09/10 01:25:32;;;;;;;1.20;1.10;;;15.10;99.90;;;;;;4955964;28;20561;-90
2022/09/10 01:28:16;;;;;;;1.87;1.33;;;15.10;99.90;;;;;;4959484;28;20921;-90
2022/09/10 01:30:48;;;;;;;2.73;1.40;;;15.10;99.90;;;;;;4957294;28;20478;-88
2022/09/10 01:33:23;;;;;;;1.50;1.40;;;15.10;99.90;;;;;;4940553;28;21099;-90
2022/09/10 01:36:04;;;;;;;1.37;1.27;;;15.20;99.90;;;;;;4953602;28;20450;-91
2022/09/10 01:38:34;;;;;;;2.13;1.07;;;15.10;99.90;;;;;;4943882;28;20477;-90
2022/09/10 01:41:00;;;;;;;2.77;1.50;;;15.10;99.90;;;;;;4955536;28;21660;-90
2022/09/10 01:43:26;;;;;;;2.17;1.50;;;15.10;99.90;;;;;;4940390;28;20838;-90
2022/09/10 01:46:17;;;;;;;1.60;1.50;;;15.00;99.90;;;;;;4941483;28;20438;-91
2022/09/10 01:48:53;;;;;;;2.00;1.20;;;15.00;99.90;;;;;;4942921;28;20485;-90
2022/09/10 01:51:43;;;;;;;1.50;1.20;;;15.00;99.90;;;;;;4958226;28;20873;-90
2022/09/10 01:54:40;;;;;;;1.40;1.30;;;15.00;99.90;;;;;;4943963;28;20434;-90
2022/09/10 01:57:51;;;;;;;2.23;1.23;;;15.00;99.90;;;;;;4908153;28;20557;-90
2022/09/10 02:00:20;;;;;;;1.73;1.60;;;15.00;99.90;;;;;;4903617;29;20443;-90
2022/09/10 02:02:52;;;;;;;3.03;1.37;;;15.00;99.90;;;;;;4906748;29;20449;-89
2022/09/10 02:05:21;;;;;;;2.07;1.60;;;14.80;99.90;;;;;;4935008;28;20866;-89
2022/09/10 02:07:48;;;;;;;3.97;1.80;;;14.80;99.90;;;;;;4956080;28;20524;-89
2022/09/10 02:10:14;;;;;;;2.10;1.60;;;14.80;99.90;;;;;;4955875;28;20481;-89
2022/09/10 02:12:39;;;;;;;2.63;1.40;;;14.80;99.90;;;;;;4940735;28;20454;-90
2022/09/10 02:15:07;;;;;;;3.17;1.40;;;14.80;99.90;;;;;;4955784;28;20492;-90
2022/09/10 02:17:38;;;;;;;1.60;1.50;;;14.80;99.90;;;;;;4955817;28;20222;-92
2022/09/10 02:20:12;;;;;;;1.37;1.23;;;14.80;99.90;;;;;;4940552;28;20453;-91
2022/09/10 02:22:42;;;;;;;1.83;1.43;;;14.90;99.90;;;;;;4940175;28;20445;-91
2022/09/10 02:25:11;;;;;;;2.17;1.47;;;14.90;99.90;;;;;;4944864;28;20449;-91
2022/09/10 02:27:40;;;;;;;1.53;1.43;;;15.00;99.90;;;;;;4935882;28;20959;-89
2022/09/10 02:30:07;;;;;;;1.40;1.30;;;15.00;99.90;;;;;;4953590;28;20445;-91
2022/09/10 02:32:35;;;;;;;2.40;1.30;;;14.90;99.90;;;;;;4956425;28;20450;-92
2022/09/10 02:35:08;;;;;;;1.93;1.30;;;14.90;99.90;;;;;;4959084;28;20536;-92
2022/09/10 02:37:34;;;;;;;2.53;1.40;;;14.90;99.90;;;;;;4941682;28;20469;-91
2022/09/10 02:40:10;;;;;;;2.50;1.47;;;14.90;99.90;;;;;;4944964;28;20533;-92
2022/09/10 02:42:37;;;;;;;1.67;1.20;;;14.90;99.90;;;;;;4941605;28;20751;-91
2022/09/10 02:45:03;;;;;;;1.63;1.17;;;14.90;99.90;;;;;;4960829;28;20446;-90
2022/09/10 02:47:35;;;;;;;1.57;1.40;;;14.90;99.90;;;;;;4946747;28;20453;-91
2022/09/10 02:50:04;;;;;;;1.93;1.23;;;14.90;99.90;;;;;;4940511;28;21063;-91
2022/09/10 02:52:29;;;;;;;1.43;1.30;;;14.80;99.90;;;;;;4938227;28;20445;-90
2022/09/10 02:54:55;;;;;;;2.20;1.30;;;14.90;99.90;;;;;;4945352;28;20445;-92
2022/09/10 02:57:20;;;;;;;3.40;1.70;;;14.80;99.90;;;;;;4944938;28;20187;-94
2022/09/10 02:59:46;;;;;;;1.63;1.53;;;14.80;99.90;;;;;;4957355;28;20221;-94
2022/09/10 03:02:12;;;;;;;3.10;1.53;;;14.80;99.90;;;;;;4941623;28;20900;-94
2022/09/10 03:04:37;;;;;;;4.47;1.53;;;14.70;99.90;;;;;;4942296;28;20183;-96
2022/09/10 03:07:03;;;;;;;2.10;1.43;;;14.60;99.90;;;;;;4944475;28;20636;-95
2022/09/10 03:09:31;;;;;;;2.67;1.50;;;14.60;99.90;;;;;;4944340;28;20202;-93
2022/09/10 03:11:56;;;;;;;2.30;1.33;;;14.60;99.90;;;;;;4952091;28;20783;-93
2022/09/10 03:14:24;;;;;;;1.67;1.17;;;14.60;99.90;;;;;;4943971;28;20509;-94
2022/09/10 03:16:50;;;;;;;3.43;1.60;;;14.60;99.90;;;;;;4934915;28;20205;-94
2022/09/10 03:19:16;;;;;;;2.10;1.50;;;14.60;99.90;;;;;;4944815;28;20482;-92
2022/09/10 03:21:42;;;;;;;2.07;1.63;;;14.60;99.90;;;;;;4937410;28;20186;-94
2022/09/10 03:24:09;;;;;;;2.30;1.80;;;14.60;99.90;;;;;;4945247;28;20702;-93
2022/09/10 03:26:34;;;;;;;1.70;1.40;;;14.50;99.90;;;;;;4942542;28;20194;-93
2022/09/10 03:29:03;;;;;;;2.40;1.60;;;14.50;99.90;;;;;;4941470;28;20445;-92
2022/09/10 03:31:29;;;;;;;1.83;1.40;;;14.50;99.90;;;;;;4943747;28;20189;-91
2022/09/10 03:33:58;;;;;;;1.43;1.33;;;14.50;99.90;;;;;;4941066;28;20526;-93
2022/09/10 03:36:28;;;;;;;2.53;1.63;;;14.40;99.90;;;;;;4949651;28;20910;-93
2022/09/10 03:38:53;;;;;;;2.03;1.67;;;14.40;99.90;;;;;;4957117;28;20629;-93
2022/09/10 03:41:19;;;;;;;2.53;1.30;;;14.40;99.90;;;;;;4942887;28;20528;-93
2022/09/10 03:43:44;;;;;;;2.70;1.30;;;14.50;99.90;;;;;;4952326;28;20679;-92
2022/09/10 03:46:10;;;;;;;1.50;1.10;;;14.50;99.90;;;;;;4938084;28;20190;-91
2022/09/10 03:48:38;;;;;;;3.40;1.30;;;14.50;99.90;;;;;;4959529;28;20277;-91
2022/09/10 03:51:08;;;;;;;1.83;1.30;;;14.50;99.90;;;;;;4941019;28;20446;-93
2022/09/10 03:53:42;;;;;;;1.30;1.20;;;14.50;99.90;;;;;;4961752;28;20445;-94
2022/09/10 03:56:08;;;;;;;1.13;1.13;;;14.40;99.90;;;;;;4959828;28;20462;-94
2022/09/10 03:58:35;;;;;;;1.00;0.90;;;14.30;99.90;;;;;;4956899;28;21637;-94
2022/09/10 04:01:01;;;;;;;2.10;1.43;;;14.30;99.90;;;;;;4946180;28;20525;-92
2022/09/10 04:03:27;;;;;;;4.63;1.47;;;14.40;99.90;;;;;;4952348;28;20465;-92
2022/09/10 04:05:52;;;;;;;1.73;1.30;;;14.30;99.90;;;;;;4964827;28;20508;-92
2022/09/10 04:08:19;;;;;;;1.83;1.30;;;14.40;99.90;;;;;;4947785;28;20959;-92
2022/09/10 04:10:46;;;;;;;4.97;1.87;;;14.30;99.90;;;;;;4957165;28;20182;-94
2022/09/10 04:13:12;;;;;;;4.20;1.63;;;14.40;99.90;;;;;;4940806;28;21018;-92
2022/09/10 04:15:38;;;;;;;2.03;1.57;;;14.40;99.90;;;;;;4941938;28;20545;-92
2022/09/10 04:18:20;;;;;;;2.23;1.30;;;14.40;99.90;;;;;;4940740;28;20777;-92
2022/09/10 04:20:47;;;;;;;1.50;1.37;;;14.40;99.90;;;;;;4942897;28;20540;-91
2022/09/10 04:23:15;;;;;;;1.60;1.50;;;14.40;99.90;;;;;;4945104;28;20442;-91
2022/09/10 04:25:40;;;;;;;1.67;1.20;;;14.40;99.90;;;;;;4944964;28;20452;-91
2022/09/10 04:28:20;;;;;;;1.70;1.50;;;14.40;99.90;;;;;;4960092;28;20445;-91
2022/09/10 04:30:51;;;;;;;1.97;1.30;;;14.40;99.90;;;;;;4942589;28;20186;-92
2022/09/10 04:33:17;;;;;;;1.80;1.30;;;14.40;99.90;;;;;;4943901;28;21029;-90
2022/09/10 04:35:43;;;;;;;1.43;1.17;;;14.30;99.90;;;;;;4951113;28;20441;-91
2022/09/10 04:38:10;;;;;;;1.73;1.50;;;14.30;99.90;;;;;;4944318;28;20285;-92
2022/09/10 04:40:40;;;;;;;1.20;1.13;;;14.30;99.90;;;;;;4940981;28;20273;-93
2022/09/10 04:43:05;;;;;;;1.60;1.10;;;14.30;99.90;;;;;;4941805;28;20998;-92
2022/09/10 04:45:34;;;;;;;2.30;1.37;;;14.30;99.90;;;;;;4944168;28;20445;-90
2022/09/10 04:47:59;;;;;;;1.47;1.37;;;14.20;99.90;;;;;;4940213;28;20254;-91
2022/09/10 04:50:25;;;;;;;1.53;1.20;;;14.30;99.90;;;;;;4943535;28;20438;-92
2022/09/10 04:52:51;;;;;;;1.73;1.40;;;14.30;99.90;;;;;;4944955;28;20736;-92
2022/09/10 04:55:16;;;;;;;2.47;1.30;;;14.30;99.90;;;;;;4944728;28;20608;-90
2022/09/10 04:57:42;;;;;;;2.13;1.53;;;14.30;99.90;;;;;;4943110;28;20692;-91
2022/09/10 05:00:08;;;;;;;1.13;1.00;;;14.40;99.90;;;;;;4940532;28;20278;-91
2022/09/10 05:02:36;;;;;;;2.07;1.87;;;14.30;99.90;;;;;;4938712;28;20186;-93
2022/09/10 05:05:07;;;;;;;2.13;1.50;;;14.30;99.90;;;;;;4960749;28;20445;-92
2022/09/10 05:07:33;;;;;;;2.33;1.50;;;14.30;99.90;;;;;;4945868;28;20446;-93
2022/09/10 05:09:59;;;;;;;2.00;1.10;;;14.30;99.90;;;;;;4942214;28;20453;-92
2022/09/10 05:12:30;;;;;;;1.47;1.30;;;14.30;99.90;;;;;;4938182;28;20754;-92
2022/09/10 05:14:55;;;;;;;2.43;1.03;;;14.30;99.90;;;;;;4943849;28;20256;-92
2022/09/10 05:17:24;;;;;;;1.90;1.53;;;14.30;99.90;;;;;;4958565;28;20971;-90
2022/09/10 05:19:49;;;;;;;1.93;1.40;;;14.40;99.90;;;;;;4944610;28;20621;-91
2022/09/10 05:22:20;;;;;;;3.57;1.33;;;14.40;99.90;;;;;;4942567;28;20529;-92
2022/09/10 05:24:45;;;;;;;2.90;1.30;;;14.40;99.90;;;;;;4938914;28;20427;-91
2022/09/10 05:27:11;;;;;;;1.33;1.20;;;14.40;99.90;;;;;;4943957;28;20858;-91
2022/09/10 05:29:58;;;;;;;1.73;1.60;;;14.40;99.90;;;;;;4945587;28;20187;-92
2022/09/10 05:32:24;;;;;;;3.73;1.93;;;14.50;99.90;;;;;;4944495;28;20237;-91
2022/09/10 05:34:50;;;;;;;1.30;1.20;;;14.50;99.90;;;;;;4962687;28;20462;-91
2022/09/10 05:37:17;;;;;;;2.97;1.33;;;14.50;99.90;;;;;;4944743;28;20805;-91
2022/09/10 05:39:45;;;;;;;2.07;1.50;;;14.50;99.90;;;;;;4943969;28;20477;-91
2022/09/10 05:42:12;;;;;;;2.00;1.40;;;14.50;99.90;;;;;;4943125;28;21288;-91
2022/09/10 05:44:39;;;;;;;1.83;1.40;;;14.50;99.90;;;;;;4944237;28;20445;-91
2022/09/10 05:47:07;;;;;;;2.47;1.57;;;14.50;99.90;;;;;;4955751;28;20438;-91
2022/09/10 05:49:33;;;;;;;2.30;2.00;;;14.60;99.90;;;;;;4958814;28;21619;-91
2022/09/10 05:51:59;;;;;;;2.37;1.57;;;14.60;99.90;;;;;;4946145;28;20461;-91
2022/09/10 05:54:25;;;;;;;1.60;1.50;;;14.50;99.90;;;;;;4955052;28;20281;-91
2022/09/10 05:56:50;;;;;;;1.67;1.40;;;14.60;99.90;;;;;;4941393;28;20194;-89
2022/09/10 05:59:16;;;;;;;3.90;1.30;;;14.60;99.90;;;;;;4943916;28;20236;-91
2022/09/10 06:01:42;;;;;;;2.00;1.80;;;14.60;99.90;;;;;;4941303;28;20191;-91
2022/09/10 06:04:08;;;;;;;2.80;1.17;;;14.60;99.90;;;;;;4945294;28;20383;-91
2022/09/10 06:06:34;;;;;;;1.40;1.30;;;14.60;99.90;;;;;;4939276;28;20201;-92
2022/09/10 06:08:59;;;;;;;1.63;1.07;;;14.70;99.90;;;;;;4960618;28;20449;-91
2022/09/10 06:11:25;;;;;;;1.30;1.20;;;14.70;99.90;;;;;;4936808;28;20194;-91
2022/09/10 06:13:51;;;;;;;1.37;1.27;;;14.80;99.90;;;;;;4941335;28;20194;-91
2022/09/10 06:16:16;;;;;;;2.30;1.57;;;14.80;99.90;;;;;;4954386;28;20190;-91
2022/09/10 06:18:42;;;;;;;1.40;1.30;;;14.80;99.90;;;;;;4954736;28;20206;-91
2022/09/10 06:21:16;;;;;;;1.97;1.77;;;14.80;99.90;;;;;;4953843;28;20438;-92
2022/09/10 06:23:43;;;;;;;1.43;1.33;;;14.70;99.90;;;;;;4938170;28;20503;-92
2022/09/10 06:26:17;;;;;;;3.80;1.83;;;14.70;99.90;;;;;;4941691;28;21359;-93
2022/09/10 06:28:43;;;;;;;1.97;1.67;;;14.70;99.90;;;;;;4947816;28;20458;-91
2022/09/10 06:31:13;;;;;;;1.73;1.53;;;14.80;99.90;;;;;;4935016;28;20460;-91
2022/09/10 06:33:39;;;;;;;2.07;1.70;;;14.90;99.90;;;;;;4934186;28;20441;-91
2022/09/10 06:36:04;;;;;;;3.90;1.30;;;14.90;99.90;;;;;;4936904;28;20475;-91
2022/09/10 06:38:35;;;;;;;1.30;1.20;;;14.90;99.90;;;;;;4953156;28;20485;-90
2022/09/10 06:41:03;;;;;;;1.00;0.90;;;14.90;99.90;;;;;;4934430;28;20283;-89
2022/09/10 06:43:32;;;;;;;2.53;1.30;;;14.90;99.90;;;;;;4942050;28;20552;-89
2022/09/10 06:45:58;;;;;;;3.10;1.37;;;14.90;99.90;;;;;;4934471;28;20438;-90
2022/09/10 06:48:27;;;;;;;1.87;1.20;;;14.80;99.90;;;;;;4943790;28;20453;-90
2022/09/10 06:51:00;;;;;;;2.80;1.20;;;14.80;99.90;;;;;;4941642;28;20205;-90
2022/09/10 06:53:28;;;;;;;2.27;1.10;;;14.80;99.90;;;;;;4937271;28;20430;-90
2022/09/10 06:55:54;;;;;;;1.40;1.30;;;14.80;99.90;;;;;;4939762;28;20442;-91
2022/09/10 06:58:29;;;;;;;1.17;1.07;;;14.80;99.90;;;;;;4935840;28;20493;-91
2022/09/10 07:00:55;;;;;;;1.47;1.37;;;14.80;99.90;;;;;;4960915;28;20452;-92
2022/09/10 07:03:21;;;;;;;2.60;1.20;;;14.90;99.90;;;;;;4956497;28;20454;-96
2022/09/10 07:05:47;;;;;;;1.50;1.40;;;15.00;99.90;;;;;;4950789;28;20183;-96
2022/09/10 07:08:15;;;;;;;2.47;1.50;;;15.00;99.90;;;;;;4944914;28;20867;-93
2022/09/10 07:10:56;;;;;;;2.67;1.10;;;15.10;99.90;;;;;;4961544;28;20434;-96
2022/09/10 07:13:22;;;;;;;3.13;1.00;;;15.20;99.90;;;;;;4952321;28;20450;-91
2022/09/10 07:15:56;;;;;;;2.40;0.97;;;15.30;99.90;;;;;;4951979;28;20475;-96
2022/09/10 07:18:25;;;;;;;2.00;1.10;;;15.30;99.90;;;;;;4954668;28;20222;-95
2022/09/10 07:21:31;;;;;;;1.90;0.80;;;15.30;99.90;;;;;;4948247;28;20486;-94
2022/09/10 07:24:19;;;;;;;;;;;;;;;;;;;;;
2022/09/10 07:29:57;;;;;;;2.80;1.00;;;15.50;99.90;;;;;;4951435;28;20478;-96
2022/09/10 07:32:50;;;;;;;;;;;;;;;;;;;;;
2022/09/10 07:35:21;;;;;;;2.60;1.10;;;15.90;99.90;;;;;;4954285;28;20453;-95
2022/09/10 07:37:53;;;;;;;1.70;0.60;;;16.00;99.90;;;;;;4962443;28;20473;-94
2022/09/10 07:40:53;;;;;;;2.13;0.90;;;16.20;99.90;;;;;;4939659;28;20525;-95
2022/09/10 07:43:44;;;;;;;1.00;0.70;;;16.20;99.90;;;;;;4947151;28;20442;-90
2022/09/10 07:46:19;;;;;;;1.93;1.07;;;16.40;99.90;;;;;;4941565;28;20445;-96
2022/09/10 07:48:51;;;;;;;1.50;0.80;;;16.70;99.90;;;;;;4947647;28;20536;-95
2022/09/10 07:51:18;;;;;;;0.90;0.90;;;16.70;99.90;;;;;;4949528;28;21727;-94
2022/09/10 07:53:50;;;;;;;3.37;0.90;;;16.60;99.90;;;;;;4946026;28;20445;-93
2022/09/10 07:56:19;;;;;;;1.00;0.80;;;16.50;99.90;;;;;;4972074;28;22057;-96
2022/09/10 07:59:10;;;;;;;1.10;0.90;;;16.50;99.90;;;;;;4950794;28;20489;-89
2022/09/10 08:01:43;;;;;;;1.40;1.00;;;16.40;99.90;;;;;;4936588;28;20448;-93
2022/09/10 08:04:09;;;;;;;1.20;0.87;;;16.40;99.90;;;;;;4941668;28;20450;-89
2022/09/10 08:06:34;;;;;;;1.17;0.90;;;16.40;99.90;;;;;;4960835;28;20433;-88
2022/09/10 08:09:04;;;;;;;0.70;0.70;;;16.30;99.90;;;;;;4944106;28;20197;-96
2022/09/10 08:11:33;;;;;;;0.70;0.70;;;16.40;99.90;;;;;;4946529;28;20194;-94
2022/09/10 08:13:59;;;;;;;0.67;0.67;;;16.40;99.90;;;;;;4966167;28;20540;-91
2022/09/10 08:16:26;;;;;;;2.67;0.80;;;16.50;99.90;;;;;;4944029;28;20852;-89
2022/09/10 08:18:56;;;;;;;2.23;0.83;;;16.60;99.90;;;;;;4954323;28;21078;-91
2022/09/10 08:21:29;;;;;;;0.90;0.60;;;16.60;99.90;;;;;;4959466;28;20444;-94
2022/09/10 08:23:56;;;;;;;1.93;0.73;;;16.60;99.90;;;;;;4962491;28;20476;-95
2022/09/10 08:26:23;;;;;;;0.90;0.60;;;16.80;99.90;;;;;;4958596;28;20475;-93
2022/09/10 08:29:01;;;;;;;1.53;0.80;;;16.60;99.90;;;;;;4956623;28;20551;-89
2022/09/10 08:31:30;;;;;;;1.67;0.40;;;16.70;99.90;;;;;;4965751;28;20520;-93
2022/09/10 08:34:04;;;;;;;2.87;0.50;;;16.90;99.90;;;;;;4946764;28;20449;-91
2022/09/10 08:36:36;;;;;;;0.60;0.60;;;17.10;99.90;;;;;;4964823;28;20450;-94
2022/09/10 08:39:01;;;;;;;0.80;0.60;;;17.40;99.90;;;;;;4960261;28;20849;-93
2022/09/10 08:41:37;;;;;;;1.63;0.67;;;17.50;99.90;;;;;;4951211;28;20430;-94
2022/09/10 08:44:08;;;;;;;0.73;0.50;;;17.60;99.90;;;;;;4968155;28;20181;-90
2022/09/10 08:47:09;;;;;;;0.97;0.57;;;17.70;99.90;;;;;;4969486;28;20450;-91
2022/09/10 08:49:55;;;;;;;22.10;19.47;;;17.50;99.90;;;;;;4993317;28;20457;-92
2022/09/10 08:52:44;;;;;;;10.47;9.37;;;17.70;99.90;;;;;;4957672;28;20498;-90
2022/09/10 08:55:24;;;;;;;1.67;0.77;;;17.90;99.90;;;;;;4957925;28;20452;-92
2022/09/10 08:57:52;;;;;;;1.00;0.83;;;18.00;99.90;;;;;;4928421;28;20473;-91
2022/09/10 09:00:24;;;;;;;2.73;1.90;;;18.10;99.90;;;;;;4953802;28;20441;-92
2022/09/10 09:06:53;;;;;;;2.97;0.57;;;17.60;99.90;;;;;;4958298;28;20469;-91
2022/09/10 09:09:23;;;;;;;3.30;2.10;;;17.60;99.90;;;;;;4959514;28;20500;-91
2022/09/10 09:12:17;;;;;;;0.80;0.80;;;17.50;99.90;;;;;;4928856;28;20564;-91
2022/09/10 09:15:08;;;;;;;0.70;0.70;;;17.50;99.90;;;;;;4960906;28;20513;-92
2022/09/10 09:17:52;;;;;;;0.90;0.70;;;17.60;99.90;;;;;;4958553;28;20453;-94
2022/09/10 09:21:31;;;;;;;1.47;0.60;;;17.80;99.90;;;;;;4955969;28;20480;-95
2022/09/10 09:24:07;;;;;;;1.47;0.87;;;18.20;99.90;;;;;;4962228;28;20439;-96
2022/09/10 09:26:35;;;;;;;1.47;0.70;;;18.50;99.90;;;;;;4945603;28;21133;-92
2022/09/10 09:29:24;;;;;;;2.13;0.70;;;18.70;99.90;;;;;;4964074;28;20453;-94
2022/09/10 09:31:56;;;;;;;2.30;0.80;;;18.50;99.90;;;;;;4948578;28;20446;-95
2022/09/10 09:34:33;;;;;;;1.27;0.60;;;18.50;99.90;;;;;;4957537;28;20446;-95
2022/09/10 09:37:03;;;;;;;2.10;0.80;;;18.70;99.90;;;;;;4939124;28;20437;-91
2022/09/10 09:40:05;;;;;;;1.17;0.67;;;18.70;99.90;;;;;;4944607;28;20555;-94
2022/09/10 09:43:26;;;;;;;2.00;0.77;;;18.40;99.90;;;;;;4954041;28;20448;-89
2022/09/10 09:45:52;;;;;;;4.63;1.50;;;18.00;99.90;;;;;;4959044;28;20516;-93
2022/09/10 09:48:19;;;;;;;1.90;0.80;;;17.80;99.90;;;;;;4935564;28;20524;-93
2022/09/10 09:50:54;;;;;;;2.73;0.87;;;17.80;99.90;;;;;;4935981;28;20469;-91
2022/09/10 09:53:39;;;;;;;1.47;0.80;;;17.70;99.90;;;;;;4938141;28;20433;-92
2022/09/10 09:56:24;;;;;;;3.80;0.93;;;17.70;99.90;;;;;;4940737;28;20456;-90
2022/09/10 09:59:13;;;;;;;1.10;0.63;;;17.80;99.90;;;;;;4954471;28;20465;-92
2022/09/10 10:01:41;;;;;;;0.67;0.67;;;17.90;99.90;;;;;;4925472;28;20433;-87
2022/09/10 10:04:20;;;;;;;3.77;1.10;;;18.10;99.90;;;;;;4925760;28;20449;-88
2022/09/10 10:06:52;;;;;;;2.47;0.90;;;18.00;99.90;;;;;;4950717;28;20457;-89
2022/09/10 10:09:25;;;;;;;2.00;0.93;;;18.10;99.90;;;;;;4938366;28;20441;-91
2022/09/10 10:12:25;;;;;;;2.43;0.83;;;18.20;99.90;;;;;;4934040;28;21107;-88
2022/09/10 10:14:51;;;;;;;10.97;9.87;;;18.30;99.90;;;;;;4943062;28;20433;-89
2022/09/10 10:17:39;;;;;;;2.40;1.53;;;19.00;99.90;;;;;;4947475;28;20493;-92
2022/09/10 10:20:07;;;;;;;1.07;0.67;;;19.60;99.90;;;;;;4948191;28;20210;-91
2022/09/10 10:23:29;;;;;;;0.70;0.70;;;19.70;99.90;;;;;;4967424;28;20432;-92
2022/09/10 10:25:54;;;;;;;5.47;4.07;;;19.40;99.90;;;;;;4937725;28;20452;-90
2022/09/10 10:28:34;;;;;;;2.30;1.07;;;19.10;99.90;;;;;;4955330;28;20448;-93
2022/09/10 10:31:00;;;;;;;1.37;0.70;;;19.10;99.90;;;;;;4946917;28;20226;-91
2022/09/10 10:37:01;;;;;;;2.17;0.80;;;19.30;99.90;;;;;;4947564;23;20533;-94
2022/09/10 10:40:13;;;;;;;1.20;0.70;;;19.20;99.90;;;;;;4950086;28;20499;-96
2022/09/10 10:43:17;;;;;;;1.07;0.67;;;19.10;99.90;;;;;;4955579;28;20464;-95
2022/09/10 10:46:13;;;;;;;2.33;1.40;;;19.10;99.90;;;;;;4952902;28;20433;-96
2022/09/10 10:49:25;;;;;;;1.03;0.93;;;19.00;99.90;;;;;;4947909;28;20516;-93
2022/09/10 10:52:26;;;;;;;1.40;0.97;;;18.90;99.90;;;;;;4950622;28;20453;-94
2022/09/10 10:55:24;;;;;;;2.00;0.80;;;18.90;99.90;;;;;;4960103;28;20993;-92
2022/09/10 10:58:29;;;;;;;2.20;1.10;;;19.00;99.90;;;;;;4950114;28;20497;-96
2022/09/10 11:01:30;;;;;;;1.50;0.90;;;19.50;99.90;;;;;;4952760;28;20457;-95
2022/09/10 11:04:44;;;;;;;1.40;0.83;;;19.60;99.90;;;;;;4970550;28;20887;-90
2022/09/10 11:07:18;;;;;;;1.63;1.00;;;19.80;99.90;;;;;;4937161;28;20462;-90
2022/09/10 11:10:15;;;;;;;1.53;0.80;;;19.60;99.90;;;;;;4943038;28;20445;-94
2022/09/10 11:12:48;;;;;;;1.47;0.63;;;19.20;99.90;;;;;;4951403;28;20449;-93
2022/09/10 11:15:32;;;;;;;8.50;1.20;;;19.10;99.90;;;;;;4939155;28;21097;-90
2022/09/10 11:18:08;;;;;;;1.77;0.90;;;18.90;99.90;;;;;;4948685;28;20465;-91
2022/09/10 11:20:41;;;;;;;2.40;0.80;;;18.90;99.90;;;;;;4963150;28;20830;-90
2022/09/10 11:23:44;;;;;;;2.10;0.80;;;19.20;99.90;;;;;;4942954;28;20500;-90
2022/09/10 11:26:20;;;;;;;1.13;0.70;;;19.40;99.90;;;;;;4948445;28;20455;-90
2022/09/10 11:29:19;;;;;;;2.10;0.67;;;19.50;99.90;;;;;;4941498;28;20473;-90
2022/09/10 11:32:08;;;;;;;0.90;0.70;;;19.30;99.90;;;;;;4943029;28;20496;-91
2022/09/10 11:34:50;;;;;;;1.80;0.60;;;19.40;99.90;;;;;;4952886;28;20501;-92
2022/09/10 11:37:30;;;;;;;2.20;0.60;;;19.90;99.90;;;;;;4944177;28;20564;-92
2022/09/10 11:39:58;;;;;;;0.77;0.77;;;20.10;99.90;;;;;;4964821;28;20450;-91
2022/09/10 11:42:38;;;;;;;0.77;0.77;;;20.60;99.10;;;;;;4949917;28;20449;-91
2022/09/10 11:45:22;;;;;;;3.03;0.80;;;20.70;98.70;;;;;;4954758;28;20437;-92
2022/09/10 11:47:56;;;;;;;1.90;0.80;;;20.20;98.50;;;;;;4942903;28;20465;-92
2022/09/10 11:50:29;;;;;;;2.63;0.90;;;20.00;99.80;;;;;;4949023;28;20445;-93
2022/09/10 11:52:57;;;;;;;1.17;0.80;;;20.30;99.30;;;;;;4952273;28;20477;-92
2022/09/10 11:55:46;;;;;;;1.10;1.00;;;20.50;98.70;;;;;;4948443;28;20479;-93
2022/09/10 11:58:24;;;;;;;1.23;1.10;;;20.70;98.20;;;;;;4950395;28;20469;-94
2022/09/10 12:01:01;;;;;;;1.67;1.00;;;20.70;98.30;;;;;;4950636;28;20994;-91
2022/09/10 12:04:02;;;;;;;3.20;0.63;;;21.00;97.90;;;;;;4963062;28;20452;-92
2022/09/10 12:06:56;;;;;;;0.97;0.70;;;20.60;97.30;;;;;;4945952;28;20815;-91
2022/09/10 12:09:30;;;;;;;1.63;0.80;;;20.60;97.50;;;;;;4932982;28;20442;-90
2022/09/10 12:12:12;;;;;;;1.70;1.00;;;20.50;97.00;;;;;;4947122;28;20446;-90
2022/09/10 12:14:39;;;;;;;1.60;0.63;;;20.10;97.80;;;;;;4946247;28;20868;-91
2022/09/10 12:17:20;;;;;;;1.80;0.73;;;19.70;98.50;;;;;;4945990;28;20827;-90
2022/09/10 12:19:51;;;;;;;0.80;0.70;;;19.50;99.00;;;;;;4962865;28;20987;-89
2022/09/10 12:22:25;;;;;;;1.43;0.90;;;19.40;99.30;;;;;;4962286;28;20528;-91
2022/09/10 12:25:27;;;;;;;4.80;1.10;;;19.30;99.10;;;;;;4965223;28;20442;-92
2022/09/10 12:27:55;;;;;;;1.17;0.70;;;19.40;99.20;;;;;;4915643;28;20448;-90
2022/09/10 12:30:26;;;;;;;1.63;0.70;;;19.20;99.20;;;;;;4950814;28;20560;-90
2022/09/10 12:32:56;;;;;;;2.83;0.80;;;19.30;98.40;;;;;;4954685;28;20441;-89
2022/09/10 12:35:31;;;;;;;1.50;0.80;;;19.80;97.50;;;;;;4951763;28;20442;-89
2022/09/10 12:38:38;;;;;;;1.43;0.70;;;20.30;96.60;;;;;;4950851;28;20527;-89
2022/09/10 12:41:34;;;;;;;1.23;0.63;;;20.40;96.50;;;;;;4968934;28;20441;-88
2022/09/10 12:44:03;;;;;;;1.90;0.87;;;20.10;96.30;;;;;;4949540;28;20464;-91
2022/09/10 12:46:30;;;;;;;0.80;0.67;;;20.00;95.90;;;;;;4949877;28;20437;-90
2022/09/10 12:48:56;;;;;;;2.30;0.70;;;20.00;96.60;;;;;;4954589;28;20796;-90
2022/09/10 12:51:50;;;;;;;2.83;1.13;;;20.50;96.60;;;;;;4955326;28;20539;-90
2022/09/10 12:54:34;;;;;;;1.10;0.70;;;20.70;95.40;;;;;;4951342;28;20441;-91
2022/09/10 12:57:44;;;;;;;1.20;0.60;;;20.90;95.30;;;;;;4948725;28;20523;-92
2022/09/10 13:00:24;;;;;;;1.40;0.70;;;21.40;95.70;;;;;;4927326;28;20466;-92
2022/09/10 13:02:59;;;;;;;2.00;0.80;;;22.20;93.90;;;;;;4954946;28;20476;-91
2022/09/10 13:05:46;;;;;;;0.70;0.63;;;21.70;92.30;;;;;;4946089;28;20551;-92
2022/09/10 13:08:15;;;;;;;1.20;0.70;;;21.20;93.30;;;;;;4968629;28;20444;-90
2022/09/10 13:10:55;;;;;;;2.20;0.67;;;21.10;93.00;;;;;;4953389;28;20798;-90
2022/09/10 13:13:33;;;;;;;2.73;0.80;;;21.30;93.60;;;;;;4948552;28;20496;-90
2022/09/10 13:16:04;;;;;;;1.63;0.80;;;21.30;93.20;;;;;;4965524;28;20452;-91
2022/09/10 13:18:33;;;;;;;1.33;0.70;;;21.70;93.50;;;;;;4946638;28;20512;-90
2022/09/10 13:21:19;;;;;;;2.00;0.70;;;21.70;92.70;;;;;;4953594;28;20524;-92
2022/09/10 13:23:47;;;;;;;1.33;0.90;;;21.20;93.70;;;;;;4951756;28;20445;-91
2022/09/10 13:26:28;;;;;;;1.33;1.23;;;20.50;94.80;;;;;;4944315;28;21082;-91
2022/09/10 13:29:01;;;;;;;0.80;0.60;;;20.30;95.40;;;;;;4951862;28;20453;-90
2022/09/10 13:31:31;;;;;;;1.93;0.87;;;20.40;95.60;;;;;;4953625;28;20854;-90
2022/09/10 13:34:14;;;;;;;1.07;0.60;;;20.30;95.70;;;;;;4949356;28;20543;-90
2022/09/10 13:37:06;;;;;;;6.57;2.43;;;20.10;95.80;;;;;;4929021;28;20488;-91